Time;durP1;ratioP1;P1;durP2;ratioP2;P2;SDS_P1;SDS_P2;PMS_P1;PMS_P2;Temp;Humidity;BMP_temperature;BMP_pressure;BME280_temperature;BME280_humidity;BME280_pressure;Samples;Min_cycle;Max_cycle;Signal;HPM_P1;HPM_P2
2022/04/26 03:36:10;;;;;;;46.27;34.33;;;;;;;8.46;100.00;95895.72;5072889;27;102076;-62
2022/04/26 03:38:37;;;;;;;55.73;35.20;;;;;;;8.43;100.00;95896.19;5073116;27;105979;-62
2022/04/26 03:41:05;;;;;;;48.90;34.17;;;;;;;8.49;100.00;95884.59;5091238;27;102493;-62
2022/04/26 03:43:32;;;;;;;45.53;32.80;;;;;;;8.56;100.00;95887.88;5076485;27;101837;-62
2022/04/26 03:45:59;;;;;;;48.03;34.20;;;;;;;8.59;100.00;95885.50;5072113;27;105455;-62
2022/04/26 03:48:27;;;;;;;45.77;34.27;;;;;;;8.55;100.00;95891.53;5072915;27;101896;-62
2022/04/26 03:50:57;;;;;;;47.10;33.17;;;;;;;8.58;100.00;95894.53;5072743;27;105256;-62
2022/04/26 03:53:26;;;;;;;42.10;31.87;;;;;;;8.62;100.00;95894.81;5072374;27;106450;-62
2022/04/26 03:55:52;;;;;;;53.83;32.13;;;;;;;8.51;100.00;95903.72;5072906;27;102450;-62
2022/04/26 03:58:20;;;;;;;49.50;32.07;;;;;;;8.50;100.00;95908.19;5091191;27;102953;-62
2022/04/26 04:00:47;;;;;;;38.77;30.50;;;;;;;8.48;100.00;95905.00;5072312;27;105651;-62
2022/04/26 04:03:14;;;;;;;39.27;29.63;;;;;;;8.54;100.00;95900.53;5072709;27;102091;-62
2022/04/26 04:05:42;;;;;;;42.87;30.77;;;;;;;8.67;100.00;95913.44;5075425;27;105783;-62
2022/04/26 04:08:09;;;;;;;41.80;31.63;;;;;;;8.73;100.00;95907.91;5072556;27;101860;-62
2022/04/26 04:10:38;;;;;;;43.57;31.13;;;;;;;8.75;100.00;95908.47;5072539;27;105832;-62
2022/04/26 04:13:06;;;;;;;45.87;32.83;;;;;;;8.77;100.00;95905.59;5090528;27;102561;-62
2022/04/26 04:15:34;;;;;;;43.90;32.93;;;;;;;8.79;100.00;95906.13;5072615;27;102124;-62
2022/04/26 04:18:00;;;;;;;48.03;32.90;;;;;;;8.74;100.00;95901.56;5072257;27;105612;-62
2022/04/26 04:20:29;;;;;;;52.67;30.73;;;;;;;8.78;100.00;95900.00;5089789;27;102600;-62
2022/04/26 04:22:56;;;;;;;44.40;31.70;;;;;;;8.82;100.00;95911.72;5072329;27;101868;-62
2022/04/26 04:25:24;;;;;;;44.37;31.80;;;;;;;8.86;100.00;95917.31;5072257;27;104212;-62
2022/04/26 04:27:53;;;;;;;39.63;30.87;;;;;;;8.80;100.00;95905.06;5075090;27;102084;-62
2022/04/26 04:30:20;;;;;;;42.63;31.30;;;;;;;8.72;100.00;95911.59;5071914;27;105257;-62
2022/04/26 04:32:47;;;;;;;40.57;31.53;;;;;;;8.69;100.00;95911.31;5088619;27;105485;-62
2022/04/26 04:35:14;;;;;;;47.20;33.50;;;;;;;8.86;100.00;95904.88;5071964;27;101896;-62
2022/04/26 04:37:41;;;;;;;43.20;32.37;;;;;;;8.83;100.00;95917.81;5071036;27;105154;-62
2022/04/26 04:40:10;;;;;;;45.53;32.57;;;;;;;8.87;100.00;95913.59;5071484;27;105293;-62
2022/04/26 04:42:37;;;;;;;41.77;31.20;;;;;;;8.91;100.00;95915.53;5071867;27;101992;-62
2022/04/26 04:45:08;;;;;;;40.23;32.43;;;;;;;8.89;100.00;95916.81;5072035;27;104057;-62
2022/04/26 04:47:34;;;;;;;39.53;30.70;;;;;;;8.96;100.00;95917.41;5074908;27;105532;-62
2022/04/26 04:50:03;;;;;;;40.23;30.57;;;;;;;8.98;100.00;95920.59;5071908;27;105108;-62
2022/04/26 04:52:30;;;;;;;39.23;30.03;;;;;;;8.79;100.00;95925.47;5071532;27;104486;-62
2022/04/26 04:54:59;;;;;;;38.53;29.50;;;;;;;8.86;100.00;95922.63;5090314;27;101850;-62
2022/04/26 04:57:26;;;;;;;39.37;30.37;;;;;;;8.97;100.00;95924.31;5071795;27;105228;-62
2022/04/26 04:59:54;;;;;;;39.60;31.30;;;;;;;9.10;100.00;95918.63;5071547;27;104533;-62
2022/04/26 05:02:22;;;;;;;38.47;29.97;;;;;;;9.13;100.00;95918.09;5071418;27;101890;-62
2022/04/26 05:04:50;;;;;;;38.83;31.47;;;;;;;9.14;100.00;95927.66;5071715;27;104450;-62
2022/04/26 05:07:17;;;;;;;38.43;30.20;;;;;;;9.19;100.00;95928.50;5071063;27;106427;-62
2022/04/26 05:09:44;;;;;;;38.33;28.60;;;;;;;9.13;100.00;95934.81;5075264;27;101897;-62
2022/04/26 05:12:11;;;;;;;34.50;28.53;;;;;;;9.00;100.00;95923.81;5089587;27;102856;-62
2022/04/26 05:14:38;;;;;;;35.30;27.97;;;;;;;9.21;100.00;95936.22;5071153;27;101880;-62
2022/04/26 05:17:07;;;;;;;33.87;27.80;;;;;;;9.27;100.00;95929.91;5089818;27;102483;-62
2022/04/26 05:19:36;;;;;;;33.53;26.77;;;;;;;9.39;100.00;95933.16;5086797;27;105532;-62
2022/04/26 05:22:09;;;;;;;34.80;27.40;;;;;;;9.49;100.00;95930.59;5071105;27;102413;-62
2022/04/26 05:24:57;;;;;;;32.07;27.63;;;;;;;9.42;100.00;95932.66;5071617;27;105080;-62
2022/04/26 05:27:25;;;;;;;33.70;27.13;;;;;;;9.50;100.00;95918.94;5070797;27;105495;-62
2022/04/26 05:29:52;;;;;;;29.77;26.10;;;;;;;9.44;100.00;95925.25;5071435;27;101844;-62
2022/04/26 05:32:21;;;;;;;30.33;26.77;;;;;;;9.56;100.00;95923.22;5073788;27;105517;-62
2022/04/26 05:34:56;;;;;;;31.57;27.57;;;;;;;9.55;100.00;95924.28;5088559;27;101938;-62
2022/04/26 05:37:23;;;;;;;31.10;26.77;;;;;;;9.62;100.00;95927.50;5071330;27;103755;-62
2022/04/26 05:39:50;;;;;;;30.80;26.23;;;;;;;9.54;100.00;95920.03;5070590;27;105288;-63
2022/04/26 05:42:17;;;;;;;27.90;24.77;;;;;;;9.36;100.00;95925.72;5071391;27;101891;-63
2022/04/26 05:44:44;;;;;;;27.30;24.40;;;;;;;9.47;100.00;95927.38;5090195;27;102302;-63
2022/04/26 05:47:11;;;;;;;27.80;24.80;;;;;;;9.57;100.00;95924.81;5070708;27;102863;-63
2022/04/26 05:49:38;;;;;;;27.90;24.90;;;;;;;9.69;100.00;95928.88;5074142;27;101856;-63
2022/04/26 05:52:07;;;;;;;29.93;26.73;;;;;;;9.63;100.00;95934.41;5091932;27;105135;-63
2022/04/26 05:54:36;;;;;;;29.33;25.50;;;;;;;9.66;100.00;95925.94;5077681;27;104940;-63
2022/04/26 05:57:04;;;;;;;29.10;25.90;;;;;;;9.79;100.00;95928.94;5074628;27;104954;-63
2022/04/26 05:59:31;;;;;;;32.13;26.97;;;;;;;9.79;100.00;95926.31;5074241;27;104727;-63
2022/04/26 06:01:58;;;;;;;30.57;26.53;;;;;;;9.91;100.00;95918.94;5074669;27;101881;-63
2022/04/26 06:04:25;;;;;;;35.30;28.30;;;;;;;9.91;100.00;95916.28;5074620;27;104712;-63
2022/04/26 06:06:52;;;;;;;30.13;26.83;;;;;;;9.87;100.00;95919.72;5092679;27;102733;-63
2022/04/26 06:09:21;;;;;;;31.77;27.17;;;;;;;9.91;100.00;95918.94;5074581;27;102000;-63
2022/04/26 06:11:48;;;;;;;30.27;26.27;;;;;;;9.95;100.00;95912.06;5074559;27;104982;-63
2022/04/26 06:14:15;;;;;;;30.50;25.70;;;;;;;10.08;100.00;95921.44;5073790;27;104996;-63
2022/04/26 06:16:42;;;;;;;34.33;26.87;;;;;;;10.10;100.00;95912.16;5096604;27;102005;-63
2022/04/26 06:19:10;;;;;;;29.87;26.37;;;;;;;10.14;100.00;95915.09;5073037;27;105287;-63
2022/04/26 06:21:36;;;;;;;30.50;25.27;;;;;;;10.25;100.00;95914.09;5074535;27;101791;-63
2022/04/26 06:24:04;;;;;;;30.77;25.73;;;;;;;10.45;100.00;95911.50;5093034;27;102467;-63
2022/04/26 06:26:32;;;;;;;30.67;25.33;;;;;;;10.56;100.00;95910.47;5092249;27;102828;-63
2022/04/26 06:28:59;;;;;;;29.07;25.80;;;;;;;10.75;100.00;95911.59;5057132;27;102076;-63
2022/04/26 06:31:26;;;;;;;28.23;24.83;;;;;;;10.76;100.00;95916.66;5074053;27;105072;-63
2022/04/26 06:33:52;;;;;;;27.00;23.90;;;;;;;10.89;100.00;95912.66;5073446;27;105066;-63
2022/04/26 06:36:19;;;;;;;25.10;22.33;;;;;;;11.20;100.00;95906.34;5095822;27;101806;-63
2022/04/26 06:38:46;;;;;;;27.07;23.90;;;;;;;11.37;100.00;95899.69;5073488;27;104991;-63
2022/04/26 06:41:13;;;;;;;26.73;23.30;;;;;;;11.56;100.00;95899.94;5074326;27;101984;-63
2022/04/26 06:43:42;;;;;;;26.17;22.80;;;;;;;11.66;100.00;95898.09;5074095;27;105610;-63
2022/04/26 06:46:09;;;;;;;23.00;20.63;;;;;;;11.56;100.00;95903.38;5091805;27;104294;-63
2022/04/26 06:48:35;;;;;;;22.67;20.43;;;;;;;11.37;100.00;95896.22;5073970;27;101801;-63
2022/04/26 06:51:02;;;;;;;23.33;20.93;;;;;;;11.05;100.00;95896.47;5073793;27;105180;-63
2022/04/26 06:53:29;;;;;;;21.70;19.50;;;;;;;11.15;100.00;95899.16;5091942;27;102577;-63
2022/04/26 06:55:56;;;;;;;22.70;20.40;;;;;;;11.47;100.00;95898.88;5073822;27;101992;-63
2022/04/26 06:58:23;;;;;;;22.70;20.40;;;;;;;11.42;100.00;95901.53;5076649;27;105646;-63
2022/04/26 07:00:52;;;;;;;20.60;18.60;;;;;;;11.28;100.00;95903.16;5072420;27;101915;-63
2022/04/26 07:03:19;;;;;;;20.63;18.63;;;;;;;10.78;100.00;95905.72;5073771;27;104960;-63
2022/04/26 07:05:45;;;;;;;21.20;19.20;;;;;;;11.02;100.00;95907.63;5072978;27;105432;-63
2022/04/26 07:08:12;;;;;;;23.23;20.63;;;;;;;11.33;100.00;95903.94;5092243;27;101788;-63
2022/04/26 07:10:39;;;;;;;21.70;19.50;;;;;;;11.42;100.00;95904.22;5073513;27;105011;-63
2022/04/26 07:13:06;;;;;;;20.33;18.37;;;;;;;11.14;100.00;95899.41;5091547;27;102540;-63
2022/04/26 07:15:34;;;;;;;20.50;18.53;;;;;;;11.38;100.00;95897.81;5073338;27;102284;-63
2022/04/26 07:18:02;;;;;;;21.00;18.97;;;;;;;11.37;100.00;95902.34;5073340;27;105023;-63
2022/04/26 07:20:31;;;;;;;20.83;18.73;;;;;;;11.40;100.00;95909.78;5092885;27;105960;-63
2022/04/26 07:22:58;;;;;;;19.80;17.90;;;;;;;11.13;100.00;95911.91;5092107;27;101671;-63
2022/04/26 07:25:25;;;;;;;19.90;17.93;;;;;;;11.15;100.00;95915.13;5073124;27;105562;-63
2022/04/26 07:27:52;;;;;;;20.17;18.17;;;;;;;11.04;100.00;95920.69;5073170;27;101937;-63
2022/04/26 07:30:18;;;;;;;21.40;18.93;;;;;;;10.93;100.00;95935.84;5073125;27;103676;-63
2022/04/26 07:35:31;;;;;;;23.73;21.23;;;;;;;10.54;100.00;95947.16;5073235;27;101852;-63
2022/04/26 07:38:06;;;;;;;24.67;22.07;;;;;;;10.46;100.00;95950.34;5073078;27;104964;-63
2022/04/26 07:40:33;;;;;;;28.40;23.80;;;;;;;10.21;100.00;95947.53;5072725;27;105589;-63
2022/04/26 07:43:01;;;;;;;28.47;23.93;;;;;;;10.23;100.00;95945.41;5076530;27;102387;-63
2022/04/26 07:45:29;;;;;;;27.10;24.17;;;;;;;10.11;100.00;95953.63;5072441;27;105032;-63
2022/04/26 07:47:56;;;;;;;28.37;24.47;;;;;;;10.35;100.00;95959.31;5090168;27;101884;-63
2022/04/26 07:50:23;;;;;;;29.17;25.20;;;;;;;10.30;100.00;95952.09;5073107;27;105289;-65
2022/04/26 07:52:51;;;;;;;30.67;25.87;;;;;;;10.37;100.00;95955.31;5072480;27;104322;-63
2022/04/26 07:55:18;;;;;;;29.97;25.90;;;;;;;10.56;100.00;95950.34;5090123;27;101966;-63
2022/04/26 07:57:45;;;;;;;29.67;25.13;;;;;;;10.67;100.00;95952.78;5072662;27;104795;-63
2022/04/26 08:00:14;;;;;;;27.07;23.47;;;;;;;10.71;100.00;95953.06;5072349;27;105568;-66
2022/04/26 08:02:41;;;;;;;24.03;21.20;;;;;;;10.77;100.00;95958.16;5072536;27;102017;-64
2022/04/26 08:05:09;;;;;;;22.70;20.30;;;;;;;10.84;100.00;95949.94;5092859;27;105708;-65
2022/04/26 08:07:39;;;;;;;22.87;20.47;;;;;;;11.16;100.00;95950.50;5072384;27;101928;-62
2022/04/26 08:10:09;;;;;;;22.80;20.40;;;;;;;11.45;100.00;95954.28;5072680;27;105729;-62
2022/04/26 08:12:38;;;;;;;23.87;21.37;;;;;;;11.74;100.00;95958.81;5090381;27;102735;-62
2022/04/26 08:15:06;;;;;;;21.70;19.40;;;;;;;11.72;100.00;95957.50;5072424;27;102383;-62
2022/04/26 08:17:32;;;;;;;23.17;20.77;;;;;;;11.83;100.00;95959.88;5091293;27;102789;-62
2022/04/26 08:19:59;;;;;;;22.73;20.33;;;;;;;11.93;100.00;95953.75;5071376;27;104386;-62
2022/04/26 08:22:27;;;;;;;23.17;20.67;;;;;;;11.90;100.00;95956.94;5089705;27;101739;-62
2022/04/26 08:27:40;;;;;;;23.07;20.67;;;;;;;11.86;100.00;95956.69;5075113;27;105912;-62
2022/04/26 08:30:07;;;;;;;22.23;19.83;;;;;;;11.99;100.00;95966.00;5072403;27;103502;-62
2022/04/26 08:32:42;;;;;;;21.67;19.57;;;;;;;11.84;100.00;95968.66;5071657;27;105564;-62
2022/04/26 08:35:11;;;;;;;23.03;20.73;;;;;;;11.88;100.00;95970.53;5072265;27;102024;-62
2022/04/26 08:37:39;;;;;;;22.27;19.83;;;;;;;12.03;100.00;95970.50;5072033;27;105880;-62
2022/04/26 08:40:07;;;;;;;23.43;20.30;;;;;;;12.27;100.00;95963.50;5071619;27;106047;-62
2022/04/26 08:42:36;;;;;;;21.47;19.23;;;;;;;12.67;100.00;95955.38;5090975;27;101705;-62
2022/04/26 08:45:07;;;;;;;19.20;17.20;;;;;;;12.88;100.00;95959.56;5090457;27;101740;-62
2022/04/26 08:53:04;;;;;;;15.40;13.90;;;;;;;12.88;100.00;95959.56;5090144;27;103116;-62
2022/04/26 08:55:32;;;;;;;16.00;14.37;;;;;;;12.64;100.00;95958.59;5071910;27;101876;-62
2022/04/26 08:57:59;;;;;;;15.83;14.33;;;;;;;12.28;100.00;95965.13;5090331;27;102393;-62
2022/04/26 09:00:33;;;;;;;14.30;12.97;;;;;;;12.29;100.00;95964.06;5090087;27;103192;-62
2022/04/26 09:03:02;;;;;;;14.77;13.37;;;;;;;12.13;100.00;95961.69;5090544;27;101824;-62
2022/04/26 09:05:30;;;;;;;15.63;14.03;;;;;;;12.26;100.00;95961.91;5071786;27;103937;-62
2022/04/26 09:07:58;;;;;;;15.17;13.70;;;;;;;12.43;100.00;95961.63;5089914;27;102606;-62
2022/04/26 09:10:29;;;;;;;15.17;13.77;;;;;;;12.41;100.00;95953.06;5075053;27;101958;-62
2022/04/26 09:13:04;;;;;;;13.50;12.20;;;;;;;12.56;100.00;95956.50;5089864;27;102857;-62
2022/04/26 09:15:42;;;;;;;14.13;12.83;;;;;;;12.67;100.00;95946.56;5090505;27;101690;-62
2022/04/26 09:18:24;;;;;;;13.73;12.43;;;;;;;13.03;100.00;95951.47;5071860;27;105042;-62
2022/04/26 09:20:54;;;;;;;14.47;13.07;;;;;;;13.13;100.00;95946.09;5089222;27;103105;-61
2022/04/26 09:23:22;;;;;;;14.40;13.03;;;;;;;13.06;100.00;95952.81;5072655;27;101901;-62
2022/04/26 09:25:53;;;;;;;16.30;14.70;;;;;;;13.07;100.00;95949.06;5093818;27;102450;-62
2022/04/26 09:28:25;;;;;;;15.50;14.00;;;;;;;13.01;100.00;95953.63;5093177;27;103155;-62
2022/04/26 09:30:54;;;;;;;14.70;13.30;;;;;;;12.82;100.00;95951.84;5093648;27;101845;-62
2022/04/26 09:33:40;;;;;;;15.27;13.87;;;;;;;13.01;100.00;95950.16;5096424;27;103017;-62
2022/04/26 09:36:10;;;;;;;14.90;13.47;;;;;;;12.71;100.00;95944.97;5075152;27;102133;-62
2022/04/26 09:38:38;;;;;;;13.87;12.57;;;;;;;12.70;100.00;95941.50;5092322;27;103452;-62
2022/04/26 09:41:08;;;;;;;13.80;12.50;;;;;;;12.81;100.00;95943.03;5074207;27;103950;-62
2022/04/26 09:43:35;;;;;;;16.00;14.50;;;;;;;12.88;100.00;95946.22;5093804;27;101729;-62
2022/04/26 09:46:06;;;;;;;15.10;13.60;;;;;;;12.96;100.00;95950.19;5093404;27;101690;-62
2022/04/26 09:48:36;;;;;;;13.53;12.33;;;;;;;12.81;100.00;95951.03;5091682;27;105922;-62
2022/04/26 09:51:04;;;;;;;14.07;12.67;;;;;;;13.09;100.00;95950.38;5093414;27;102025;-62
2022/04/26 09:53:32;;;;;;;13.40;12.10;;;;;;;12.97;100.00;95951.81;5074821;27;104242;-62
2022/04/26 09:56:01;;;;;;;14.47;13.07;;;;;;;13.04;100.00;95953.06;5077429;27;105771;-62
2022/04/26 09:58:29;;;;;;;13.37;12.17;;;;;;;13.07;100.00;95952.53;5074711;27;103633;-62
2022/04/26 10:00:59;;;;;;;13.17;11.90;;;;;;;13.17;100.00;95949.81;5092757;27;102692;-62
2022/04/26 10:03:31;;;;;;;13.47;12.27;;;;;;;13.44;100.00;95946.69;5075244;27;101696;-62
2022/04/26 10:06:03;;;;;;;13.83;12.53;;;;;;;13.72;100.00;95938.72;5093436;27;102920;-62
2022/04/26 10:08:32;;;;;;;14.10;12.70;;;;;;;13.67;100.00;95949.44;5074071;27;105935;-62
2022/04/26 10:11:00;;;;;;;13.57;12.27;;;;;;;13.98;100.00;95941.94;5092987;27;101830;-62
2022/04/26 10:13:39;;;;;;;14.20;12.90;;;;;;;14.12;100.00;95934.88;5093034;27;102370;-61
2022/04/26 10:16:08;;;;;;;14.43;13.03;;;;;;;14.26;100.00;95938.47;5092733;27;102703;-62
2022/04/26 10:18:39;;;;;;;15.13;13.73;;;;;;;14.32;100.00;95937.34;5077843;27;101976;-62
2022/04/26 10:21:08;;;;;;;14.87;13.47;;;;;;;14.80;100.00;95928.19;5091964;27;102793;-61
2022/04/26 10:24:13;;;;;;;15.73;14.13;;;;;;;14.90;100.00;95934.22;5092841;27;101859;-61
2022/04/26 10:26:40;;;;;;;14.43;13.03;;;;;;;15.12;100.00;95936.34;5074090;27;105284;-62
2022/04/26 10:29:20;;;;;;;14.93;13.40;;;;;;;15.44;100.00;95936.44;5092165;27;104250;-62
2022/04/26 10:31:49;;;;;;;14.73;13.27;;;;;;;15.47;100.00;95933.19;5092927;27;102148;-62
2022/04/26 10:34:34;;;;;;;13.33;12.13;;;;;;;15.14;100.00;95939.50;5092163;27;102467;-62
2022/04/26 10:37:17;;;;;;;12.43;11.23;;;;;;;15.13;100.00;95944.09;5070990;27;103858;-62
2022/04/26 10:39:46;;;;;;;13.93;12.43;;;;;;;14.67;100.00;95939.63;5083744;27;101958;-62
2022/04/26 10:42:28;;;;;;;14.20;12.90;;;;;;;14.53;100.00;95936.03;5095548;27;102348;-62
2022/04/26 10:44:59;;;;;;;15.13;13.53;;;;;;;14.20;100.00;95934.25;5092797;27;101762;-62
2022/04/26 10:47:29;;;;;;;14.80;13.40;;;;;;;14.09;100.00;95938.09;5092678;27;102639;-62
2022/04/26 10:50:00;;;;;;;12.90;11.73;;;;;;;14.32;100.00;95938.13;5091796;27;104635;-62
2022/04/26 10:52:53;;;;;;;13.13;11.87;;;;;;;14.19;100.00;95946.00;5073706;27;101931;-61
2022/04/26 10:55:27;;;;;;;14.03;12.67;;;;;;;14.04;100.00;95943.47;5068183;27;105915;-61
2022/04/26 10:57:55;;;;;;;15.37;13.87;;;;;;;13.67;100.00;95943.28;5092129;27;102753;-62
2022/04/26 11:00:37;;;;;;;16.10;14.50;;;;;;;13.52;100.00;95946.09;5073720;27;102139;-62
2022/04/26 11:03:08;;;;;;;14.73;13.43;;;;;;;13.64;100.00;95942.00;5076587;27;103827;-61
2022/04/26 11:05:37;;;;;;;15.57;14.00;;;;;;;13.99;100.00;95939.00;5092308;27;101741;-61
2022/04/26 11:08:06;;;;;;;14.23;12.93;;;;;;;14.60;100.00;95931.16;5073538;27;105140;-62
2022/04/26 11:13:20;;;;;;;13.20;12.00;;;;;;;15.70;100.00;95932.25;5091621;27;101766;-62
2022/04/26 11:15:48;;;;;;;12.30;11.20;;;;;;;16.44;100.00;95926.66;5091424;27;102312;-61
2022/04/26 11:18:20;;;;;;;11.90;10.90;;;;;;;16.27;100.00;95923.72;5072966;27;103187;-62
2022/04/26 11:20:49;;;;;;;12.53;11.33;;;;;;;15.96;100.00;95914.66;5090822;27;101788;-62
2022/04/26 11:29:22;;;;;;;12.10;11.00;;;;;;;17.21;100.00;95910.25;5090873;27;101853;-62
2022/04/26 11:31:49;;;;;;;12.60;11.50;;;;;;;16.81;100.00;95915.69;5088202;27;102588;-62
2022/04/26 11:34:16;;;;;;;12.17;11.07;;;;;;;16.84;100.00;95912.44;5072194;27;101858;-62
2022/04/26 11:36:46;;;;;;;11.37;10.27;;;;;;;17.01;100.00;95912.59;5072362;27;104852;-62
2022/04/26 11:39:13;;;;;;;11.37;10.33;;;;;;;16.92;100.00;95914.41;5070155;27;103879;-62
2022/04/26 11:41:40;;;;;;;11.33;10.33;;;;;;;17.10;100.00;95908.06;5091727;27;101694;-62
2022/04/26 11:44:08;;;;;;;11.00;10.10;;;;;;;17.12;100.00;95908.59;5091499;27;102798;-62
2022/04/26 11:46:35;;;;;;;10.43;9.53;;;;;;;16.89;100.00;95912.31;5071818;27;103767;-62
2022/04/26 11:49:04;;;;;;;11.30;10.20;;;;;;;16.66;100.00;95914.13;5077396;27;101923;-62
2022/04/26 11:51:32;;;;;;;10.90;9.93;;;;;;;16.63;100.00;95919.31;5090842;27;102877;-62
2022/04/26 11:54:01;;;;;;;9.97;9.03;;;;;;;16.55;100.00;95922.69;5092568;27;101689;-62
2022/04/26 11:56:28;;;;;;;10.27;9.30;;;;;;;16.33;100.00;95925.22;5073569;27;105688;-62
2022/04/26 11:58:55;;;;;;;10.77;9.77;;;;;;;16.18;100.00;95929.00;5073650;27;102570;-61
2022/04/26 12:01:23;;;;;;;9.50;8.67;;;;;;;16.16;100.00;95933.88;5092372;27;101985;-62
2022/04/26 12:03:52;;;;;;;9.20;8.40;;;;;;;15.95;100.00;95945.22;5072453;27;106535;-62
2022/04/26 12:06:20;;;;;;;10.90;9.90;;;;;;;15.43;100.00;95959.72;5089966;27;102719;-62
2022/04/26 12:08:48;;;;;;;10.47;9.37;;;;;;;14.71;100.00;95967.41;5090524;27;102107;-62
2022/04/26 12:11:20;;;;;;;11.27;10.27;;;;;;;14.43;100.00;95995.81;5093615;27;102492;-61
2022/04/26 12:13:59;;;;;;;6.50;5.93;;;;;;;13.17;100.00;96023.75;5089463;27;101932;-62
2022/04/26 12:16:27;;;;;;;2.40;2.10;;;;;;;12.39;100.00;96043.22;5090684;27;102574;-62
2022/04/26 12:18:55;;;;;;;1.83;1.50;;;;;;;10.91;100.00;96092.25;5089573;27;102840;-62
2022/04/26 12:21:23;;;;;;;3.63;1.00;;;;;;;9.13;100.00;96125.00;5088852;27;102070;-62
2022/04/26 12:24:12;;;;;;;4.73;1.20;;;;;;;7.93;100.00;96169.06;5072541;27;105766;-62
2022/04/26 12:26:52;;;;;;;2.70;0.80;;;;;;;7.49;100.00;96164.56;5069899;27;105931;-62
2022/04/26 12:29:19;;;;;;;3.57;1.10;;;;;;;7.44;100.00;96171.59;5090506;27;102272;-61
2022/04/26 12:31:47;;;;;;;0.70;0.70;;;;;;;7.36;100.00;96174.63;5090380;27;102615;-62
2022/04/26 12:34:19;;;;;;;1.63;1.03;;;;;;;7.43;100.00;96180.56;5091040;27;102471;-62
2022/04/26 12:36:54;;;;;;;2.10;1.33;;;;;;;7.33;100.00;96180.38;5089150;27;105289;-62
2022/04/26 12:39:21;;;;;;;6.33;1.10;;;;;;;7.34;100.00;96203.13;5070961;27;105191;-61
2022/04/26 12:41:50;;;;;;;1.23;1.10;;;;;;;7.37;100.00;96202.66;5090398;27;101829;-61
2022/04/26 12:44:20;;;;;;;1.63;0.90;;;;;;;7.45;100.00;96205.75;5088894;27;105255;-62
2022/04/26 12:50:27;;;;;;;1.27;1.17;;;;;;;7.35;100.00;96217.94;5089831;27;102705;-62
2022/04/26 12:52:47;;;;;;;2.60;1.70;;;;;;;7.31;100.00;96230.06;5089535;27;102550;-62
2022/04/26 12:55:14;;;;;;;1.57;1.37;;;;;;;7.25;100.00;96233.63;5087040;27;102655;-62
2022/04/26 12:57:49;;;;;;;2.70;1.50;;;;;;;7.20;100.00;96241.47;5092875;27;103258;-62
2022/04/26 13:00:20;;;;;;;4.03;1.50;;;;;;;7.20;100.00;96244.09;5069455;27;105419;-62
2022/04/26 13:02:48;;;;;;;2.37;2.17;;;;;;;7.14;100.00;96252.97;5072598;27;101814;-61
2022/04/26 13:05:16;;;;;;;2.20;2.00;;;;;;;7.12;100.00;96255.03;5090648;27;102836;-62
2022/04/26 13:07:43;;;;;;;2.03;1.93;;;;;;;7.06;100.00;96269.16;5090626;27;102174;-61
2022/04/26 13:10:10;;;;;;;2.30;1.33;;;;;;;7.00;100.00;96270.91;5091488;27;102105;-61
2022/04/26 13:12:37;;;;;;;1.50;1.40;;;;;;;6.92;100.00;96278.38;5091635;27;102544;-62
2022/04/26 13:15:06;;;;;;;1.73;1.40;;;;;;;6.90;100.00;96273.31;5071862;27;105196;-61
2022/04/26 13:17:34;;;;;;;1.77;1.40;;;;;;;6.91;100.00;96269.66;5076081;27;101819;-61
2022/04/26 13:20:02;;;;;;;1.80;1.70;;;;;;;6.93;100.00;96269.41;5071310;27;106145;-62
2022/04/26 13:22:29;;;;;;;1.60;1.50;;;;;;;6.92;100.00;96270.47;5072579;27;101852;-61
2022/04/26 13:24:56;;;;;;;2.10;1.90;;;;;;;6.85;100.00;96267.91;5089817;27;105146;-61
2022/04/26 13:27:23;;;;;;;4.63;2.10;;;;;;;6.85;100.00;96261.81;5070360;27;103816;-62
2022/04/26 13:29:50;;;;;;;2.50;2.07;;;;;;;6.81;100.00;96271.25;5071120;27;101980;-62
2022/04/26 13:32:18;;;;;;;4.17;2.77;;;;;;;6.84;100.00;96278.72;5071320;27;104811;-61
2022/04/26 13:34:48;;;;;;;7.10;2.30;;;;;;;6.97;100.00;96273.19;5070659;27;105221;-62
2022/04/26 13:37:17;;;;;;;2.83;2.20;;;;;;;6.87;100.00;96275.63;5071341;27;102032;-62
2022/04/26 13:39:45;;;;;;;3.30;1.90;;;;;;;6.79;100.00;96273.31;5071061;27;104854;-62
2022/04/26 13:42:12;;;;;;;2.10;1.80;;;;;;;6.82;100.00;96283.44;5071232;27;101816;-62
2022/04/26 13:44:41;;;;;;;2.10;1.90;;;;;;;6.76;100.00;96282.50;5068258;27;105292;-61
2022/04/26 13:47:08;;;;;;;3.23;2.00;;;;;;;6.85;100.00;96273.22;5069741;27;106220;-62
2022/04/26 13:49:36;;;;;;;2.93;2.47;;;;;;;6.82;100.00;96278.16;5071014;27;101865;-62
2022/04/26 13:52:05;;;;;;;3.37;2.30;;;;;;;6.92;100.00;96286.31;5071630;27;103704;-62
2022/04/26 13:54:32;;;;;;;2.20;2.00;;;;;;;6.91;100.00;96288.16;5069852;27;105257;-62
2022/04/26 13:56:59;;;;;;;1.67;1.57;;;;;;;6.91;100.00;96292.63;5054333;27;102441;-62
2022/04/26 13:59:27;;;;;;;2.50;1.33;;;;;;;6.87;100.00;96294.91;5090525;27;102376;-62
2022/04/26 14:01:55;;;;;;;1.90;1.37;;;;;;;6.87;100.00;96294.13;5091821;27;102810;-62
2022/04/26 14:04:23;;;;;;;1.50;1.40;;;;;;;6.84;100.00;96297.22;5068098;27;105149;-62
2022/04/26 14:06:50;;;;;;;2.20;1.20;;;;;;;6.78;100.00;96296.31;5070092;27;105948;-62
2022/04/26 14:09:21;;;;;;;1.80;1.10;;;;;;;6.73;100.00;96298.00;5090045;27;102057;-62
2022/04/26 14:11:48;;;;;;;1.87;1.20;;;;;;;6.75;100.00;96293.28;5074641;27;104089;-62
2022/04/26 14:22:32;;;;;;;2.10;1.40;;;;;;;6.75;100.00;96298.56;5093555;27;102765;-62
2022/04/26 14:25:02;;;;;;;3.17;2.60;;;;;;;6.85;100.00;96306.75;5097375;27;101807;-62
2022/04/26 14:27:30;;;;;;;2.47;2.27;;;;;;;6.91;100.00;96292.63;5074436;27;105399;-62
2022/04/26 14:29:58;;;;;;;1.60;1.50;;;;;;;6.72;100.00;96302.47;5058029;27;101701;-62
2022/04/26 14:32:25;;;;;;;1.40;1.30;;;;;;;6.86;100.00;96293.31;5075339;27;105185;-62
2022/04/26 14:34:53;;;;;;;2.20;1.37;;;;;;;7.08;100.00;96285.59;5074503;27;105102;-62
2022/04/26 14:37:22;;;;;;;2.23;1.37;;;;;;;7.04;100.00;96287.91;5074981;27;101920;-62
2022/04/26 14:39:49;;;;;;;1.57;1.30;;;;;;;7.13;100.00;96280.41;5074778;27;106331;-62
2022/04/26 14:42:19;;;;;;;1.77;1.33;;;;;;;7.17;100.00;96286.88;5074329;27;105073;-62
2022/04/26 14:44:45;;;;;;;1.63;1.53;;;;;;;7.02;100.00;96305.84;5074818;27;101782;-62
2022/04/26 14:47:13;;;;;;;2.73;1.70;;;;;;;7.11;100.00;96301.84;5077602;27;105400;-62
2022/04/26 14:49:40;;;;;;;2.17;1.80;;;;;;;7.33;100.00;96302.84;5074718;27;101819;-62
2022/04/26 14:52:08;;;;;;;2.43;1.60;;;;;;;7.29;100.00;96300.88;5074812;27;105454;-62
2022/04/26 14:54:35;;;;;;;1.60;1.50;;;;;;;7.37;100.00;96296.03;5093020;27;101961;-62
2022/04/26 14:57:04;;;;;;;2.03;1.57;;;;;;;7.41;100.00;96305.13;5057535;27;102063;-62
2022/04/26 14:59:36;;;;;;;3.20;2.60;;;;;;;7.60;100.00;96308.44;5074746;27;106363;-62
2022/04/26 15:02:03;;;;;;;1.47;1.37;;;;;;;7.62;100.00;96311.63;5074057;27;105468;-62
2022/04/26 15:04:32;;;;;;;2.93;1.53;;;;;;;7.58;100.00;96315.81;5074814;27;101896;-62
2022/04/26 15:06:59;;;;;;;1.67;1.57;;;;;;;7.53;100.00;96305.91;5074627;27;104070;-62
2022/04/26 15:09:43;;;;;;;9.07;5.90;;;;;;;7.73;100.00;96308.97;5077228;27;101978;-62
2022/04/26 15:17:49;;;;;;;10.20;3.37;;;;;;;7.84;100.00;96302.84;5074082;27;101960;-62
2022/04/26 15:20:18;;;;;;;2.30;2.10;;;;;;;7.97;100.00;96315.00;5070349;27;105297;-62
2022/04/26 15:22:46;;;;;;;2.17;1.97;;;;;;;8.08;100.00;96319.47;5070004;27;105615;-62
2022/04/26 15:25:14;;;;;;;2.07;1.87;;;;;;;8.03;100.00;96329.94;5072499;27;101927;-62
2022/04/26 15:27:41;;;;;;;2.37;2.17;;;;;;;7.90;100.00;96319.66;5071035;27;104822;-62
2022/04/26 15:30:11;;;;;;;3.03;2.80;;;;;;;7.71;100.00;96336.72;5074987;27;102593;-62